createdAt,value
2023-03-29T00:00:14.626Z,964.41
2023-03-29T00:01:35.462Z,964.43
2023-03-29T00:02:14.452Z,964.43
2023-03-29T00:03:14.497Z,964.44
2023-03-29T00:04:14.449Z,964.40
2023-03-29T00:05:14.339Z,964.42
2023-03-29T00:06:14.309Z,964.42
2023-03-29T00:07:14.292Z,964.39
2023-03-29T00:08:14.285Z,964.41
2023-03-29T00:09:14.222Z,964.39
2023-03-29T00:10:14.195Z,964.48
2023-03-29T00:11:14.167Z,964.48
2023-03-29T00:12:14.133Z,964.52
2023-03-29T00:13:14.105Z,964.51
2023-03-29T00:14:14.074Z,964.62
2023-03-29T00:15:14.046Z,964.64
2023-03-29T00:16:14.091Z,964.64
2023-03-29T00:17:14.007Z,964.74
2023-03-29T00:18:13.958Z,964.82
2023-03-29T00:19:13.934Z,964.81
2023-03-29T00:20:13.900Z,964.82
2023-03-29T00:21:13.870Z,964.74
2023-03-29T00:22:13.839Z,964.79
2023-03-29T00:23:13.816Z,964.85
2023-03-29T00:24:13.781Z,964.89
2023-03-29T00:25:13.751Z,964.83
2023-03-29T00:26:13.726Z,964.79
2023-03-29T00:27:13.692Z,964.60
2023-03-29T00:28:13.663Z,964.53
2023-03-29T00:29:13.632Z,964.48
2023-03-29T00:30:13.626Z,964.37
2023-03-29T00:31:13.594Z,964.31
2023-03-29T00:32:13.546Z,964.25
2023-03-29T00:33:13.639Z,964.25
2023-03-29T00:34:13.516Z,964.23
2023-03-29T00:35:13.464Z,964.17
2023-03-29T00:36:13.428Z,964.14
2023-03-29T00:37:13.399Z,964.18
2023-03-29T00:38:13.370Z,964.13
2023-03-29T00:39:13.362Z,964.13
2023-03-29T00:40:13.315Z,964.04
2023-03-29T00:41:13.279Z,964.07
2023-03-29T00:42:13.270Z,964.02
2023-03-29T00:43:13.221Z,964.02
2023-03-29T00:44:13.189Z,964.04
2023-03-29T00:45:13.164Z,964.05
2023-03-29T00:46:13.179Z,964.06
2023-03-29T00:47:13.102Z,964.00
2023-03-29T00:48:13.128Z,964.01
2023-03-29T00:49:13.066Z,963.98
2023-03-29T00:50:13.020Z,963.95
2023-03-29T00:51:12.987Z,963.92
2023-03-29T00:52:12.960Z,963.93
2023-03-29T00:53:12.928Z,963.92
2023-03-29T00:54:12.897Z,963.89
2023-03-29T00:55:12.870Z,963.92
2023-03-29T00:56:12.845Z,963.93
2023-03-29T00:57:12.823Z,963.95
2023-03-29T00:58:12.779Z,963.94
2023-03-29T00:59:12.749Z,963.94
2023-03-29T01:00:12.727Z,963.93
2023-03-29T01:01:12.695Z,963.96
2023-03-29T01:02:12.780Z,963.99
2023-03-29T01:03:12.697Z,963.96
2023-03-29T01:04:12.605Z,963.92
2023-03-29T01:05:12.597Z,963.89
2023-03-29T01:06:12.552Z,963.90
2023-03-29T01:07:12.562Z,963.87
2023-03-29T01:08:12.491Z,963.84
2023-03-29T01:09:12.472Z,963.92
2023-03-29T01:10:12.436Z,963.96
2023-03-29T01:11:12.401Z,963.90
2023-03-29T01:12:12.375Z,963.86
2023-03-29T01:13:12.342Z,963.85
2023-03-29T01:14:12.318Z,963.88
2023-03-29T01:15:12.285Z,963.89
2023-03-29T01:16:12.349Z,963.92
2023-03-29T01:17:12.227Z,963.88
2023-03-29T01:18:12.235Z,963.89
2023-03-29T01:19:12.166Z,963.90
2023-03-29T01:20:12.138Z,963.80
2023-03-29T01:21:12.129Z,963.78
2023-03-29T01:22:12.080Z,963.76
2023-03-29T01:23:12.052Z,963.79
2023-03-29T01:24:12.026Z,963.80
2023-03-29T01:25:11.995Z,963.83
2023-03-29T01:26:11.985Z,963.79
2023-03-29T01:27:11.932Z,963.76
2023-03-29T01:28:11.905Z,963.71
2023-03-29T01:29:11.874Z,963.69
2023-03-29T01:30:11.847Z,963.71
2023-03-29T01:31:11.815Z,963.68
2023-03-29T01:32:11.784Z,963.67
2023-03-29T01:33:11.757Z,963.67
2023-03-29T01:34:11.728Z,963.66
2023-03-29T01:35:11.698Z,963.66
2023-03-29T01:36:11.727Z,963.69
2023-03-29T01:37:11.665Z,963.62
2023-03-29T01:38:11.643Z,963.63
2023-03-29T01:39:11.584Z,963.66
2023-03-29T01:40:11.568Z,963.65
2023-03-29T01:41:11.524Z,963.59
2023-03-29T01:42:11.493Z,963.49
2023-03-29T01:43:11.469Z,963.53
2023-03-29T01:44:11.434Z,963.42
2023-03-29T01:45:11.405Z,963.46
2023-03-29T01:46:11.412Z,963.50
2023-03-29T01:47:11.366Z,963.46
2023-03-29T01:48:11.317Z,963.47
2023-03-29T01:49:11.321Z,963.48
2023-03-29T01:50:11.260Z,963.53
2023-03-29T01:51:11.230Z,963.48
2023-03-29T01:52:11.201Z,963.45
2023-03-29T01:53:11.210Z,963.43
2023-03-29T01:54:11.143Z,963.43
2023-03-29T01:55:11.115Z,963.50
2023-03-29T01:56:11.084Z,963.55
2023-03-29T01:57:11.084Z,963.59
2023-03-29T01:58:11.033Z,963.59
2023-03-29T01:59:10.997Z,963.55
2023-03-29T02:00:10.970Z,963.56
2023-03-29T02:01:10.982Z,963.58
2023-03-29T02:02:10.928Z,963.58
2023-03-29T02:03:10.972Z,963.58
2023-03-29T02:04:10.850Z,963.57
2023-03-29T02:05:10.825Z,963.53
2023-03-29T02:06:10.791Z,963.49
2023-03-29T02:07:10.765Z,963.44
2023-03-29T02:08:10.736Z,963.47
2023-03-29T02:09:10.728Z,963.50
2023-03-29T02:10:10.677Z,963.51
2023-03-29T02:11:10.651Z,963.47
2023-03-29T02:12:10.620Z,963.45
2023-03-29T02:13:10.589Z,963.41
2023-03-29T02:14:10.563Z,963.42
2023-03-29T02:15:10.531Z,963.41
2023-03-29T02:16:10.535Z,963.37
2023-03-29T02:17:10.471Z,963.36
2023-03-29T02:18:10.479Z,963.36
2023-03-29T02:19:10.412Z,963.42
2023-03-29T02:20:10.386Z,963.42
2023-03-29T02:21:10.353Z,963.44
2023-03-29T02:22:10.337Z,963.44
2023-03-29T02:23:10.301Z,963.38
2023-03-29T02:24:10.267Z,963.39
2023-03-29T02:25:10.290Z,963.38
2023-03-29T02:26:10.213Z,963.39
2023-03-29T02:27:10.179Z,963.38
2023-03-29T02:28:10.149Z,963.34
2023-03-29T02:29:10.121Z,963.35
2023-03-29T02:30:10.094Z,963.30
2023-03-29T02:31:10.080Z,963.31
2023-03-29T02:32:10.042Z,963.27
2023-03-29T02:33:10.081Z,963.24
2023-03-29T02:34:09.980Z,963.23
2023-03-29T02:35:09.948Z,963.19
2023-03-29T02:36:09.957Z,963.20
2023-03-29T02:37:09.886Z,963.18
2023-03-29T02:38:09.865Z,963.17
2023-03-29T02:39:09.859Z,963.19
2023-03-29T02:40:09.798Z,963.26
2023-03-29T02:41:09.804Z,963.32
2023-03-29T02:42:09.743Z,963.32
2023-03-29T02:43:09.715Z,963.29
2023-03-29T02:44:09.684Z,963.28
2023-03-29T02:45:09.652Z,963.29
2023-03-29T02:46:09.650Z,963.32
2023-03-29T02:47:09.598Z,963.38
2023-03-29T02:48:09.634Z,963.35
2023-03-29T02:49:09.542Z,963.35
2023-03-29T02:50:09.512Z,963.37
2023-03-29T02:51:09.489Z,963.43
2023-03-29T02:52:09.455Z,963.40
2023-03-29T02:53:09.423Z,963.41
2023-03-29T02:54:09.398Z,963.32
2023-03-29T02:55:09.370Z,963.36
2023-03-29T02:56:09.338Z,963.36
2023-03-29T02:57:09.410Z,963.42
2023-03-29T02:58:09.283Z,963.40
2023-03-29T02:59:09.256Z,963.42
2023-03-29T03:00:09.230Z,963.37
2023-03-29T03:01:09.221Z,963.29
2023-03-29T03:02:09.234Z,963.28
2023-03-29T03:03:09.318Z,963.23
2023-03-29T03:04:09.184Z,963.21
2023-03-29T03:05:09.089Z,963.20
2023-03-29T03:06:09.051Z,963.21
2023-03-29T03:07:09.018Z,963.22
2023-03-29T03:08:08.993Z,963.23
2023-03-29T03:09:08.963Z,963.24
2023-03-29T03:10:08.940Z,963.30
2023-03-29T03:11:08.904Z,963.33
2023-03-29T03:12:08.878Z,963.34
2023-03-29T03:13:08.865Z,963.35
2023-03-29T03:14:08.824Z,963.36
2023-03-29T03:15:08.811Z,963.35
2023-03-29T03:16:08.829Z,963.30
2023-03-29T03:17:08.729Z,963.30
2023-03-29T03:18:08.778Z,963.29
2023-03-29T03:19:08.669Z,963.25
2023-03-29T03:20:08.647Z,963.21
2023-03-29T03:21:08.629Z,963.24
2023-03-29T03:22:08.583Z,963.24
2023-03-29T03:23:08.552Z,963.26
2023-03-29T03:24:08.528Z,963.26
2023-03-29T03:25:08.500Z,963.31
2023-03-29T03:26:08.469Z,963.34
2023-03-29T03:27:08.432Z,963.38
2023-03-29T03:28:08.403Z,963.35
2023-03-29T03:29:08.392Z,963.33
2023-03-29T03:30:08.350Z,963.33
2023-03-29T03:31:08.381Z,963.28
2023-03-29T03:32:08.345Z,963.27
2023-03-29T03:33:08.255Z,963.24
2023-03-29T03:34:08.228Z,963.20
2023-03-29T03:35:08.199Z,963.18
2023-03-29T03:36:08.222Z,963.19
2023-03-29T03:37:08.153Z,963.12
2023-03-29T03:38:08.110Z,963.12
2023-03-29T03:39:08.080Z,963.15
2023-03-29T03:40:08.068Z,963.22
2023-03-29T03:41:08.023Z,963.26
2023-03-29T03:42:08.585Z,963.22
2023-03-29T03:43:07.966Z,963.23
2023-03-29T03:44:07.935Z,963.22
2023-03-29T03:45:07.925Z,963.18
2023-03-29T03:46:07.956Z,963.16
2023-03-29T03:47:07.862Z,963.14
2023-03-29T03:48:07.853Z,963.17
2023-03-29T03:49:07.816Z,963.18
2023-03-29T03:50:07.765Z,963.13
2023-03-29T03:51:07.747Z,963.14
2023-03-29T03:52:07.711Z,963.22
2023-03-29T03:53:07.686Z,963.16
2023-03-29T03:54:07.664Z,963.14
2023-03-29T03:55:07.613Z,963.10
2023-03-29T03:56:07.584Z,963.13
2023-03-29T03:57:07.592Z,963.13
2023-03-29T03:58:07.530Z,963.20
2023-03-29T03:59:07.512Z,963.13
2023-03-29T04:00:07.471Z,963.16
2023-03-29T04:01:07.456Z,963.24
2023-03-29T04:02:07.464Z,963.21
2023-03-29T04:03:07.604Z,963.29
2023-03-29T04:04:07.406Z,963.32
2023-03-29T04:05:07.323Z,963.21
2023-03-29T04:06:07.310Z,963.17
2023-03-29T04:07:07.262Z,963.33
2023-03-29T04:08:07.233Z,963.27
2023-03-29T04:09:07.202Z,963.20
2023-03-29T04:10:07.176Z,963.18
2023-03-29T04:11:07.145Z,963.11
2023-03-29T04:12:07.115Z,963.11
2023-03-29T04:13:07.089Z,963.26
2023-03-29T04:14:07.062Z,963.18
2023-03-29T04:15:07.036Z,963.25
2023-03-29T04:16:07.046Z,963.25
2023-03-29T04:17:06.987Z,963.24
2023-03-29T04:18:07.032Z,963.29
2023-03-29T04:19:06.909Z,963.25
2023-03-29T04:20:06.896Z,963.15
2023-03-29T04:21:06.858Z,963.21
2023-03-29T04:22:06.828Z,963.31
2023-03-29T04:23:06.797Z,963.33
2023-03-29T04:24:06.783Z,963.25
2023-03-29T04:25:06.734Z,963.23
2023-03-29T04:26:06.706Z,963.30
2023-03-29T04:27:06.680Z,963.29
2023-03-29T04:28:06.650Z,963.28
2023-03-29T04:29:06.620Z,963.24
2023-03-29T04:30:06.592Z,963.22
2023-03-29T04:31:06.581Z,963.19
2023-03-29T04:32:06.532Z,963.17
2023-03-29T04:33:06.571Z,963.14
2023-03-29T04:34:06.476Z,963.11
2023-03-29T04:35:06.472Z,963.15
2023-03-29T04:36:06.468Z,963.06
2023-03-29T04:37:06.388Z,963.00
2023-03-29T04:38:06.360Z,963.02
2023-03-29T04:39:06.336Z,963.11
2023-03-29T04:40:06.301Z,963.09
2023-03-29T04:41:06.274Z,963.12
2023-03-29T04:42:06.246Z,963.15
2023-03-29T04:43:06.214Z,963.07
2023-03-29T04:44:06.181Z,963.09
2023-03-29T04:45:06.240Z,963.11
2023-03-29T04:46:06.143Z,963.03
2023-03-29T04:47:06.117Z,962.99
2023-03-29T04:48:06.171Z,963.07
2023-03-29T04:49:06.068Z,963.05
2023-03-29T04:50:06.021Z,963.11
2023-03-29T04:51:05.984Z,963.10
2023-03-29T04:52:05.955Z,963.09
2023-03-29T04:53:05.922Z,963.05
2023-03-29T04:54:05.892Z,963.06
2023-03-29T04:55:05.879Z,963.01
2023-03-29T04:56:05.836Z,962.96
2023-03-29T04:57:05.852Z,962.99
2023-03-29T04:58:05.786Z,963.01
2023-03-29T04:59:05.755Z,963.04
2023-03-29T05:00:05.717Z,963.07
2023-03-29T05:01:05.687Z,963.09
2023-03-29T05:02:05.696Z,963.02
2023-03-29T05:03:05.667Z,963.09
2023-03-29T05:04:05.641Z,963.14
2023-03-29T05:05:05.593Z,963.14
2023-03-29T05:06:05.540Z,963.24
2023-03-29T05:07:05.511Z,963.18
2023-03-29T05:08:05.480Z,963.03
2023-03-29T05:09:05.467Z,962.97
2023-03-29T05:10:05.424Z,962.98
2023-03-29T05:11:05.393Z,962.90
2023-03-29T05:12:05.362Z,962.84
2023-03-29T05:13:05.334Z,962.82
2023-03-29T05:14:05.305Z,962.80
2023-03-29T05:15:05.274Z,962.71
2023-03-29T05:16:05.308Z,962.73
2023-03-29T05:17:05.292Z,962.76
2023-03-29T05:18:05.264Z,962.92
2023-03-29T05:19:05.162Z,962.92
2023-03-29T05:20:05.136Z,962.91
2023-03-29T05:21:05.465Z,962.91
2023-03-29T05:22:05.088Z,962.82
2023-03-29T05:23:05.042Z,963.00
2023-03-29T05:24:05.011Z,962.94
2023-03-29T05:25:04.986Z,963.02
2023-03-29T05:26:04.958Z,963.07
2023-03-29T05:27:04.935Z,963.11
2023-03-29T05:28:04.893Z,963.16
2023-03-29T05:29:04.868Z,963.13
2023-03-29T05:30:04.840Z,963.16
2023-03-29T05:31:05.153Z,963.21
2023-03-29T05:32:04.926Z,963.25
2023-03-29T05:33:04.806Z,963.23
2023-03-29T05:34:04.723Z,963.29
2023-03-29T05:35:04.699Z,963.29
2023-03-29T05:36:04.790Z,963.27
2023-03-29T05:37:04.656Z,963.25
2023-03-29T05:38:04.604Z,963.17
2023-03-29T05:39:04.574Z,963.17
2023-03-29T05:40:06.118Z,963.23
2023-03-29T05:41:04.622Z,963.19
2023-03-29T05:42:04.517Z,963.22
2023-03-29T05:43:04.532Z,963.24
2023-03-29T05:44:04.440Z,963.25
2023-03-29T05:45:04.401Z,963.26
2023-03-29T05:46:04.399Z,963.19
2023-03-29T05:47:04.343Z,963.23
2023-03-29T05:48:04.365Z,963.21
2023-03-29T05:49:04.290Z,963.18
2023-03-29T05:50:04.276Z,963.18
2023-03-29T05:51:04.370Z,963.13
2023-03-29T05:52:04.203Z,963.14
2023-03-29T05:53:04.185Z,963.10
2023-03-29T05:54:04.136Z,963.07
2023-03-29T05:55:04.122Z,963.07
2023-03-29T05:56:04.092Z,963.05
2023-03-29T05:57:04.096Z,963.06
2023-03-29T05:58:04.025Z,963.04
2023-03-29T05:59:03.993Z,963.05
2023-03-29T06:00:03.966Z,963.05
2023-03-29T06:01:04.096Z,963.02
2023-03-29T06:02:03.962Z,963.04
2023-03-29T06:03:17.642Z,963.06
2023-03-29T06:04:04.117Z,963.08
2023-03-29T06:05:03.976Z,963.12
2023-03-29T06:06:03.883Z,963.15
2023-03-29T06:07:03.770Z,963.17
2023-03-29T06:08:03.733Z,963.21
2023-03-29T06:09:03.722Z,963.24
2023-03-29T06:10:03.672Z,963.24
2023-03-29T06:11:05.048Z,963.21
2023-03-29T06:12:03.618Z,963.23
2023-03-29T06:13:03.595Z,963.23
2023-03-29T06:14:03.575Z,963.22
2023-03-29T06:15:03.531Z,963.21
2023-03-29T06:16:03.509Z,963.17
2023-03-29T06:17:03.497Z,963.22
2023-03-29T06:18:03.522Z,963.19
2023-03-29T06:19:03.416Z,963.18
2023-03-29T06:20:03.387Z,963.20
2023-03-29T06:21:03.681Z,963.23
2023-03-29T06:22:03.329Z,963.23
2023-03-29T06:23:03.302Z,963.21
2023-03-29T06:24:03.279Z,963.19
2023-03-29T06:25:03.265Z,963.24
2023-03-29T06:26:03.214Z,963.24
2023-03-29T06:27:03.198Z,963.27
2023-03-29T06:28:03.155Z,963.29
2023-03-29T06:29:03.129Z,963.25
2023-03-29T06:30:03.099Z,963.24
2023-03-29T06:31:04.299Z,963.21
2023-03-29T06:32:03.042Z,963.18
2023-03-29T06:33:03.066Z,963.22
2023-03-29T06:34:02.988Z,963.20
2023-03-29T06:35:02.969Z,963.25
2023-03-29T06:36:02.966Z,963.19
2023-03-29T06:37:02.902Z,963.11
2023-03-29T06:38:02.884Z,963.14
2023-03-29T06:39:02.846Z,963.17
2023-03-29T06:40:02.819Z,963.19
2023-03-29T06:41:03.021Z,963.19
2023-03-29T06:42:13.068Z,963.17
2023-03-29T06:43:02.781Z,963.19
2023-03-29T06:44:02.702Z,963.24
2023-03-29T06:45:02.677Z,963.29
2023-03-29T06:46:02.686Z,963.28
2023-03-29T06:47:02.621Z,963.28
2023-03-29T06:48:02.607Z,963.31
2023-03-29T06:49:02.561Z,963.32
2023-03-29T06:50:02.535Z,963.26
2023-03-29T06:51:02.714Z,963.35
2023-03-29T06:52:02.481Z,963.34
2023-03-29T06:53:02.452Z,963.30
2023-03-29T06:54:02.421Z,963.29
2023-03-29T06:55:02.398Z,963.27
2023-03-29T06:56:02.362Z,963.34
2023-03-29T06:57:02.420Z,963.30
2023-03-29T06:58:02.919Z,963.37
2023-03-29T06:59:02.283Z,963.36
2023-03-29T07:00:02.248Z,963.35
2023-03-29T07:01:02.580Z,963.34
2023-03-29T07:02:02.232Z,963.29
2023-03-29T07:03:02.192Z,963.33
2023-03-29T07:04:02.184Z,963.30
2023-03-29T07:05:02.114Z,963.37
2023-03-29T07:06:02.087Z,963.37
2023-03-29T07:07:02.052Z,963.38
2023-03-29T07:08:02.025Z,963.36
2023-03-29T07:09:02.007Z,963.39
2023-03-29T07:10:01.964Z,963.41
2023-03-29T07:11:02.222Z,963.34
2023-03-29T07:12:01.917Z,963.35
2023-03-29T07:13:01.908Z,963.41
2023-03-29T07:14:01.869Z,963.44
2023-03-29T07:15:01.828Z,963.47
2023-03-29T07:16:01.814Z,963.41
2023-03-29T07:17:01.787Z,963.47
2023-03-29T07:18:01.764Z,963.43
2023-03-29T07:19:01.715Z,963.41
2023-03-29T07:20:01.687Z,963.40
2023-03-29T07:21:01.942Z,963.41
2023-03-29T07:22:01.635Z,963.37
2023-03-29T07:23:01.729Z,963.36
2023-03-29T07:24:01.579Z,963.38
2023-03-29T07:25:01.548Z,963.40
2023-03-29T07:26:01.527Z,963.38
2023-03-29T07:27:04.401Z,963.35
2023-03-29T07:28:01.495Z,963.39
2023-03-29T07:29:01.748Z,963.44
2023-03-29T07:30:01.426Z,963.49
2023-03-29T07:31:02.032Z,963.55
2023-03-29T07:32:01.348Z,963.57
2023-03-29T07:33:01.452Z,963.58
2023-03-29T07:34:01.299Z,963.58
2023-03-29T07:35:01.297Z,963.63
2023-03-29T07:36:01.289Z,963.69
2023-03-29T07:37:01.219Z,963.71
2023-03-29T07:38:01.183Z,963.69
2023-03-29T07:39:01.163Z,963.76
2023-03-29T07:40:01.128Z,963.77
2023-03-29T07:41:01.350Z,963.74
2023-03-29T07:42:01.072Z,963.74
2023-03-29T07:43:01.046Z,963.76
2023-03-29T07:44:03.294Z,963.74
2023-03-29T07:45:01.010Z,963.71
2023-03-29T07:46:01.000Z,963.72
2023-03-29T07:47:00.946Z,963.73
2023-03-29T07:48:00.932Z,963.77
2023-03-29T07:49:00.877Z,963.71
2023-03-29T07:50:00.883Z,963.67
2023-03-29T07:51:01.005Z,963.74
2023-03-29T07:52:00.794Z,963.76
2023-03-29T07:53:00.772Z,963.76
2023-03-29T07:54:00.757Z,963.75
2023-03-29T07:55:00.712Z,963.68
2023-03-29T07:56:00.688Z,963.69
2023-03-29T07:57:00.737Z,963.71
2023-03-29T07:58:02.632Z,963.62
2023-03-29T07:59:00.608Z,963.66
2023-03-29T08:00:00.590Z,963.62
2023-03-29T08:01:00.984Z,963.59
2023-03-29T08:02:00.519Z,963.60
2023-03-29T08:03:00.522Z,963.61
2023-03-29T08:04:00.645Z,963.65
2023-03-29T08:05:00.481Z,963.65
2023-03-29T08:06:00.407Z,963.67
2023-03-29T08:07:00.392Z,963.67
2023-03-29T08:08:00.355Z,963.70
2023-03-29T08:09:00.331Z,963.72
2023-03-29T08:10:00.299Z,963.77
2023-03-29T08:11:00.471Z,963.76
2023-03-29T08:12:00.255Z,963.81
2023-03-29T08:13:00.215Z,963.88
2023-03-29T08:14:00.194Z,963.88
2023-03-29T08:15:00.171Z,963.86
2023-03-29T08:16:00.153Z,963.91
2023-03-29T08:17:00.191Z,963.91
2023-03-29T08:18:00.178Z,963.90
2023-03-29T08:19:00.057Z,963.86
2023-03-29T08:20:00.042Z,963.93
2023-03-29T08:21:00.133Z,963.96
2023-03-29T08:21:59.977Z,963.94
2023-03-29T08:22:59.946Z,963.95
2023-03-29T08:23:59.924Z,963.95
2023-03-29T08:24:59.892Z,963.94
2023-03-29T08:25:59.863Z,963.95
2023-03-29T08:26:59.839Z,963.98
2023-03-29T08:27:59.819Z,964.00
2023-03-29T08:28:59.795Z,964.02
2023-03-29T08:29:59.754Z,964.03
2023-03-29T08:31:00.069Z,964.00
2023-03-29T08:31:59.702Z,963.97
2023-03-29T08:32:59.719Z,963.98
2023-03-29T08:33:59.651Z,963.96
2023-03-29T08:34:59.622Z,963.94
2023-03-29T08:35:59.664Z,963.92
2023-03-29T08:36:59.565Z,963.90
2023-03-29T08:37:59.542Z,963.93
2023-03-29T08:38:59.518Z,963.92
2023-03-29T08:39:59.484Z,963.91
2023-03-29T08:40:59.534Z,963.94
2023-03-29T08:41:59.433Z,963.84
2023-03-29T08:42:59.418Z,963.86
2023-03-29T08:43:59.387Z,963.85
2023-03-29T08:44:59.358Z,963.83
2023-03-29T08:45:59.340Z,963.88
2023-03-29T08:46:59.431Z,963.85
2023-03-29T08:47:59.315Z,963.91
2023-03-29T08:48:59.298Z,963.93
2023-03-29T08:49:59.220Z,963.90
2023-03-29T08:50:59.281Z,963.93
2023-03-29T08:51:59.160Z,963.95
2023-03-29T08:52:59.135Z,963.99
2023-03-29T08:53:59.109Z,963.97
2023-03-29T08:54:59.084Z,963.99
2023-03-29T08:55:59.055Z,964.01
2023-03-29T08:56:59.076Z,963.98
2023-03-29T08:57:59.002Z,963.98
2023-03-29T08:58:58.976Z,964.00
2023-03-29T08:59:58.948Z,964.03
2023-03-29T09:00:58.933Z,964.03
2023-03-29T09:01:58.953Z,964.03
2023-03-29T09:02:58.933Z,964.00
2023-03-29T09:03:58.954Z,964.08
2023-03-29T09:04:58.882Z,964.00
2023-03-29T09:05:58.793Z,964.01
2023-03-29T09:06:58.766Z,963.97
2023-03-29T09:07:58.739Z,963.96
2023-03-29T09:08:58.711Z,963.95
2023-03-29T09:09:58.689Z,963.92
2023-03-29T09:10:58.659Z,963.95
2023-03-29T09:11:58.638Z,963.92
2023-03-29T09:12:58.674Z,963.91
2023-03-29T09:13:58.582Z,963.91
2023-03-29T09:14:58.569Z,963.89
2023-03-29T09:15:58.589Z,963.88
2023-03-29T09:16:58.508Z,963.90
2023-03-29T09:17:58.516Z,963.84
2023-03-29T09:18:58.460Z,963.90
2023-03-29T09:19:58.428Z,963.87
2023-03-29T09:20:58.492Z,963.87
2023-03-29T09:21:58.379Z,963.83
2023-03-29T09:22:58.349Z,963.83
2023-03-29T09:23:58.323Z,963.81
2023-03-29T09:24:58.301Z,963.83
2023-03-29T09:25:58.286Z,963.87
2023-03-29T09:26:58.244Z,963.85
2023-03-29T09:27:58.219Z,963.82
2023-03-29T09:28:58.192Z,963.78
2023-03-29T09:29:58.221Z,963.81
2023-03-29T09:30:58.146Z,963.79
2023-03-29T09:31:58.170Z,963.78
2023-03-29T09:32:58.180Z,963.76
2023-03-29T09:33:58.070Z,963.76
2023-03-29T09:34:58.044Z,963.77
2023-03-29T09:35:58.047Z,963.76
2023-03-29T09:36:58.006Z,963.78
2023-03-29T09:37:57.965Z,963.79
2023-03-29T09:38:57.936Z,963.79
2023-03-29T09:39:57.915Z,963.87
2023-03-29T09:40:57.894Z,963.88
2023-03-29T09:41:57.859Z,963.80
2023-03-29T09:42:57.843Z,963.85
2023-03-29T09:43:57.807Z,963.86
2023-03-29T09:44:57.786Z,963.90
2023-03-29T09:45:57.811Z,963.84
2023-03-29T09:46:57.730Z,963.85
2023-03-29T09:47:57.781Z,963.81
2023-03-29T09:48:57.678Z,963.81
2023-03-29T09:49:57.652Z,963.84
2023-03-29T09:50:57.624Z,963.86
2023-03-29T09:51:57.604Z,963.87
2023-03-29T09:52:57.594Z,963.88
2023-03-29T09:53:57.549Z,963.87
2023-03-29T09:54:57.524Z,963.85
2023-03-29T09:55:57.499Z,963.80
2023-03-29T09:56:57.503Z,963.79
2023-03-29T09:57:57.451Z,963.83
2023-03-29T09:58:57.420Z,963.78
2023-03-29T09:59:57.408Z,963.73
2023-03-29T10:00:57.398Z,963.77
2023-03-29T10:01:57.345Z,963.78
2023-03-29T10:02:57.401Z,963.76
2023-03-29T10:03:57.331Z,963.75
2023-03-29T10:04:57.264Z,963.80
2023-03-29T10:05:57.240Z,963.78
2023-03-29T10:06:57.217Z,963.80
2023-03-29T10:07:57.201Z,963.73
2023-03-29T10:08:57.190Z,963.72
2023-03-29T10:09:57.140Z,963.74
2023-03-29T10:10:57.111Z,963.77
2023-03-29T10:11:57.091Z,963.82
2023-03-29T10:12:57.060Z,963.75
2023-03-29T10:13:57.038Z,963.80
2023-03-29T10:14:57.023Z,963.77
2023-03-29T10:15:56.983Z,963.77
2023-03-29T10:16:57.094Z,963.79
2023-03-29T10:17:56.965Z,963.75
2023-03-29T10:18:56.908Z,963.75
2023-03-29T10:19:56.895Z,963.78
2023-03-29T10:20:56.857Z,963.76
2023-03-29T10:21:56.833Z,963.76
2023-03-29T10:22:56.806Z,963.82
2023-03-29T10:23:56.785Z,963.80
2023-03-29T10:24:56.778Z,963.82
2023-03-29T10:25:56.734Z,963.80
2023-03-29T10:26:56.709Z,963.82
2023-03-29T10:27:56.686Z,963.78
2023-03-29T10:28:56.661Z,963.69
2023-03-29T10:29:56.635Z,963.68
2023-03-29T10:30:56.614Z,963.64
2023-03-29T10:31:56.673Z,963.62
2023-03-29T10:32:56.664Z,963.62
2023-03-29T10:33:56.534Z,963.65
2023-03-29T10:34:56.509Z,963.68
2023-03-29T10:35:56.520Z,963.67
2023-03-29T10:36:56.474Z,963.67
2023-03-29T10:37:56.437Z,963.63
2023-03-29T10:38:56.412Z,963.59
2023-03-29T10:39:56.388Z,963.53
2023-03-29T10:40:56.380Z,963.50
2023-03-29T10:41:56.345Z,963.55
2023-03-29T10:42:56.314Z,963.51
2023-03-29T10:43:56.294Z,963.51
2023-03-29T10:44:56.264Z,963.43
2023-03-29T10:45:56.356Z,963.46
2023-03-29T10:46:56.223Z,963.50
2023-03-29T10:47:56.308Z,963.53
2023-03-29T10:48:56.169Z,963.49
2023-03-29T10:49:57.191Z,963.47
2023-03-29T10:50:56.132Z,963.51
2023-03-29T10:51:56.106Z,963.47
2023-03-29T10:52:56.074Z,963.43
2023-03-29T10:53:56.050Z,963.40
2023-03-29T10:54:56.040Z,963.42
2023-03-29T10:55:56.016Z,963.41
2023-03-29T10:56:56.067Z,963.38
2023-03-29T10:57:55.958Z,963.39
2023-03-29T10:58:55.931Z,963.41
2023-03-29T10:59:55.906Z,963.40
2023-03-29T11:00:55.881Z,963.40
2023-03-29T11:01:55.934Z,963.37
2023-03-29T11:02:55.954Z,963.33
2023-03-29T11:03:55.971Z,963.35
2023-03-29T11:04:55.785Z,963.39
2023-03-29T11:05:55.779Z,963.36
2023-03-29T11:06:55.737Z,963.36
2023-03-29T11:07:55.715Z,963.33
2023-03-29T11:08:55.694Z,963.34
2023-03-29T11:09:55.711Z,963.35
2023-03-29T11:10:55.640Z,963.28
2023-03-29T11:12:08.323Z,963.26
2023-03-29T11:12:55.615Z,963.27
2023-03-29T11:13:56.991Z,963.26
2023-03-29T11:14:55.561Z,963.16
2023-03-29T11:15:55.547Z,963.21
2023-03-29T11:16:55.494Z,963.16
2023-03-29T11:17:55.517Z,963.19
2023-03-29T11:18:55.442Z,963.18
2023-03-29T11:19:55.420Z,963.17
2023-03-29T11:20:55.394Z,963.18
2023-03-29T11:21:55.373Z,963.17
2023-03-29T11:22:55.349Z,963.16
2023-03-29T11:23:55.324Z,963.14
2023-03-29T11:24:55.303Z,963.12
2023-03-29T11:25:55.278Z,963.13
2023-03-29T11:26:55.251Z,963.11
2023-03-29T11:27:55.228Z,963.05
2023-03-29T11:28:55.227Z,963.06
2023-03-29T11:29:55.179Z,963.09
2023-03-29T11:30:55.240Z,962.99
2023-03-29T11:31:55.231Z,963.06
2023-03-29T11:32:55.136Z,963.00
2023-03-29T11:33:55.084Z,963.09
2023-03-29T11:34:55.062Z,963.13
2023-03-29T11:35:55.063Z,963.11
2023-03-29T11:36:55.014Z,963.08
2023-03-29T11:37:54.988Z,963.06
2023-03-29T11:38:54.965Z,963.04
2023-03-29T11:39:54.941Z,963.03
2023-03-29T11:40:54.920Z,962.96
2023-03-29T11:41:54.895Z,962.94
2023-03-29T11:42:54.872Z,962.97
2023-03-29T11:43:55.135Z,962.99
2023-03-29T11:44:55.169Z,962.95
2023-03-29T11:45:54.797Z,962.94
2023-03-29T11:46:54.873Z,962.92
2023-03-29T11:47:54.774Z,962.92
2023-03-29T11:48:54.730Z,962.88
2023-03-29T11:49:54.698Z,962.83
2023-03-29T11:50:54.677Z,962.88
2023-03-29T11:51:54.650Z,962.93
2023-03-29T11:52:54.630Z,962.96
2023-03-29T11:53:54.607Z,962.97
2023-03-29T11:54:54.579Z,962.93
2023-03-29T11:55:54.559Z,962.95
2023-03-29T11:56:54.566Z,962.90
2023-03-29T11:57:54.507Z,962.90
2023-03-29T11:58:54.482Z,962.93
2023-03-29T11:59:54.465Z,962.93
2023-03-29T12:00:54.469Z,962.93
2023-03-29T12:01:54.426Z,962.94
2023-03-29T12:02:54.522Z,962.94
2023-03-29T12:03:54.515Z,962.86
2023-03-29T12:04:54.361Z,962.87
2023-03-29T12:05:54.316Z,962.89
2023-03-29T12:06:54.296Z,962.88
2023-03-29T12:07:54.263Z,962.86
2023-03-29T12:08:54.242Z,962.84
2023-03-29T12:09:54.219Z,962.91
2023-03-29T12:10:54.194Z,962.88
2023-03-29T12:11:54.171Z,962.90
2023-03-29T12:12:54.147Z,962.90
2023-03-29T12:13:54.124Z,962.84
2023-03-29T12:14:54.101Z,962.85
2023-03-29T12:15:54.083Z,962.87
2023-03-29T12:16:54.111Z,962.84
2023-03-29T12:17:54.063Z,962.86
2023-03-29T12:18:54.006Z,962.81
2023-03-29T12:19:53.983Z,962.78
2023-03-29T12:20:53.960Z,962.75
2023-03-29T12:21:53.945Z,962.73
2023-03-29T12:22:53.914Z,962.73
2023-03-29T12:23:53.918Z,962.79
2023-03-29T12:24:53.867Z,962.80
2023-03-29T12:25:53.842Z,962.76
2023-03-29T12:26:53.823Z,962.78
2023-03-29T12:27:53.805Z,962.83